Time;durP1;ratioP1;P1;durP2;ratioP2;P2;SDS_P1;SDS_P2;PMS_P1;PMS_P2;Temp;Humidity;BMP_temperature;BMP_pressure;BME280_temperature;BME280_humidity;BME280_pressure;Samples;Min_cycle;Max_cycle;Signal;HPM_P1;HPM_P2
2022/12/02 00:00:23;;;;;;;37.30;18.63;;;4.40;99.90;;;;;;5072216;28;20249;-49
2022/12/02 00:02:51;;;;;;;37.40;18.53;;;4.30;99.90;;;;;;5078106;28;20255;-50
2022/12/02 00:05:32;;;;;;;33.27;17.40;;;4.40;99.90;;;;;;5071288;28;20238;-50
2022/12/02 00:08:00;;;;;;;37.10;18.57;;;4.40;99.90;;;;;;5068382;28;20731;-50
2022/12/02 00:10:29;;;;;;;34.37;18.13;;;4.40;99.90;;;;;;5066659;28;20717;-50
2022/12/02 00:13:02;;;;;;;36.80;19.37;;;4.40;99.90;;;;;;5077146;28;20204;-50
2022/12/02 00:15:40;;;;;;;37.27;18.43;;;4.40;99.90;;;;;;5078235;28;20328;-49
2022/12/02 00:18:09;;;;;;;40.10;18.50;;;4.30;99.90;;;;;;5075884;28;20203;-49
2022/12/02 00:20:36;;;;;;;28.80;16.03;;;4.40;99.90;;;;;;5077145;28;20253;-50
2022/12/02 00:23:03;;;;;;;34.77;16.97;;;4.30;99.90;;;;;;5068897;28;20287;-49
2022/12/02 00:25:30;;;;;;;31.47;17.37;;;4.40;99.90;;;;;;5074326;28;20224;-50
2022/12/02 00:27:58;;;;;;;35.33;17.23;;;4.40;99.90;;;;;;5072611;28;20198;-51
2022/12/02 00:30:25;;;;;;;37.07;18.20;;;4.40;99.90;;;;;;5072271;28;20213;-50
2022/12/02 00:32:53;;;;;;;35.23;17.60;;;4.40;99.90;;;;;;5073101;28;20283;-49
2022/12/02 00:35:21;;;;;;;35.37;17.17;;;4.40;99.90;;;;;;5071350;28;20222;-50
2022/12/02 00:37:48;;;;;;;33.60;17.13;;;4.40;99.90;;;;;;5054860;28;20695;-50
2022/12/02 00:40:15;;;;;;;31.47;17.80;;;4.40;99.90;;;;;;5071927;28;20212;-50
2022/12/02 00:42:42;;;;;;;33.67;17.47;;;4.40;99.90;;;;;;5055739;28;20251;-49
2022/12/02 00:48:05;;;;;;;31.63;16.43;;;4.40;99.90;;;;;;5048386;28;20197;-50
2022/12/02 00:50:32;;;;;;;28.50;16.80;;;4.40;99.90;;;;;;5071652;28;20275;-50
2022/12/02 00:52:59;;;;;;;29.73;16.03;;;4.40;99.90;;;;;;5070243;28;20264;-49
2022/12/02 00:55:26;;;;;;;34.40;17.20;;;4.40;99.90;;;;;;5071337;28;20222;-50
2022/12/02 00:57:53;;;;;;;31.10;17.17;;;4.40;99.90;;;;;;5069346;28;20206;-50
2022/12/02 01:00:20;;;;;;;31.50;16.80;;;4.30;99.90;;;;;;5070267;28;20274;-50
2022/12/02 01:02:47;;;;;;;36.93;19.80;;;4.30;99.90;;;;;;5075665;28;20201;-50
2022/12/02 01:05:16;;;;;;;29.90;16.30;;;4.40;99.90;;;;;;5074996;28;20284;-49
2022/12/02 01:07:43;;;;;;;41.77;20.87;;;4.30;99.90;;;;;;5077435;28;20201;-50
2022/12/02 01:10:10;;;;;;;36.23;19.03;;;4.30;99.90;;;;;;5081470;28;20565;-51
2022/12/02 01:12:38;;;;;;;34.33;18.70;;;4.30;99.90;;;;;;5070340;28;20259;-50
2022/12/02 01:15:06;;;;;;;43.10;20.40;;;4.30;99.90;;;;;;5063841;28;20750;-50
2022/12/02 01:17:33;;;;;;;34.30;19.23;;;4.30;99.90;;;;;;5077693;28;20201;-49
2022/12/02 01:20:00;;;;;;;35.77;19.20;;;4.30;99.90;;;;;;5078563;28;20251;-50
2022/12/02 01:22:28;;;;;;;38.03;17.60;;;4.30;99.90;;;;;;5056963;28;20201;-49
2022/12/02 01:24:55;;;;;;;35.07;18.60;;;4.30;99.90;;;;;;5063229;28;20239;-50
2022/12/02 01:27:23;;;;;;;27.77;15.30;;;4.30;99.90;;;;;;5068523;28;20208;-49
2022/12/02 01:29:50;;;;;;;35.27;16.67;;;4.30;99.90;;;;;;5061874;28;20311;-50
2022/12/02 01:32:18;;;;;;;35.27;16.80;;;4.30;99.90;;;;;;5059748;28;20222;-50
2022/12/02 01:34:45;;;;;;;34.83;18.07;;;4.30;99.90;;;;;;5072163;28;20219;-51
2022/12/02 01:37:12;;;;;;;26.60;16.37;;;4.30;99.90;;;;;;5051801;28;20282;-50
2022/12/02 01:39:41;;;;;;;33.40;17.43;;;4.30;99.90;;;;;;5066818;28;20207;-51
2022/12/02 01:42:08;;;;;;;29.93;16.83;;;4.30;99.90;;;;;;5058379;28;20322;-49
2022/12/02 01:44:40;;;;;;;36.40;16.67;;;4.30;99.90;;;;;;5064910;28;20304;-51
2022/12/02 01:47:07;;;;;;;36.70;18.67;;;4.30;99.90;;;;;;5066984;28;20206;-51
2022/12/02 01:49:34;;;;;;;36.83;19.73;;;4.20;99.90;;;;;;5071503;28;20288;-50
2022/12/02 01:52:01;;;;;;;36.90;19.87;;;4.30;99.90;;;;;;5051582;28;20381;-51
2022/12/02 01:54:29;;;;;;;30.70;16.70;;;4.30;99.90;;;;;;5054313;28;20273;-50
2022/12/02 01:56:58;;;;;;;34.40;17.50;;;4.30;99.90;;;;;;5070982;28;20669;-49
2022/12/02 01:59:25;;;;;;;26.27;15.13;;;4.30;99.90;;;;;;5070689;28;20206;-51
2022/12/02 02:01:53;;;;;;;33.83;16.77;;;4.30;99.90;;;;;;5073527;28;20582;-51
2022/12/02 02:04:20;;;;;;;27.17;15.10;;;4.30;99.90;;;;;;5064907;28;20235;-50
2022/12/02 02:06:47;;;;;;;34.63;17.97;;;4.30;99.90;;;;;;5071752;28;20704;-50
2022/12/02 02:09:15;;;;;;;28.77;15.07;;;4.30;99.90;;;;;;5071602;28;20261;-49
2022/12/02 02:11:42;;;;;;;28.57;15.57;;;4.30;99.90;;;;;;5062432;28;20228;-49
2022/12/02 02:14:13;;;;;;;26.83;16.30;;;4.30;99.90;;;;;;5069397;28;20269;-49
2022/12/02 02:16:40;;;;;;;27.03;16.40;;;4.40;99.90;;;;;;5073511;28;20281;-50
2022/12/02 02:19:12;;;;;;;32.90;18.13;;;4.40;99.90;;;;;;5051479;28;20207;-50
2022/12/02 02:21:45;;;;;;;29.80;15.53;;;4.40;99.90;;;;;;5058997;28;20197;-49
2022/12/02 02:24:13;;;;;;;29.53;16.30;;;4.40;99.90;;;;;;5065460;28;20226;-51
2022/12/02 02:26:40;;;;;;;30.37;16.47;;;4.40;99.90;;;;;;5054612;28;20845;-50
2022/12/02 02:29:07;;;;;;;32.37;16.33;;;4.50;99.90;;;;;;5067880;28;20264;-50
2022/12/02 02:31:34;;;;;;;29.27;15.90;;;4.40;99.90;;;;;;5063122;28;20224;-49
2022/12/02 02:34:02;;;;;;;30.10;15.87;;;4.40;99.90;;;;;;5057423;28;20735;-50
2022/12/02 02:36:29;;;;;;;32.03;15.97;;;4.40;99.90;;;;;;5070959;28;20284;-50
2022/12/02 02:38:57;;;;;;;28.60;16.47;;;4.40;99.90;;;;;;5070869;28;20217;-50
2022/12/02 02:41:28;;;;;;;27.80;15.40;;;4.40;99.90;;;;;;5071030;28;20226;-51
2022/12/02 02:43:55;;;;;;;31.00;16.27;;;4.30;99.90;;;;;;5070250;28;20214;-50
2022/12/02 02:46:22;;;;;;;28.37;15.00;;;4.30;99.90;;;;;;5070894;28;20619;-50
2022/12/02 02:48:50;;;;;;;31.47;14.93;;;4.30;99.90;;;;;;5071235;28;20208;-50
2022/12/02 02:51:18;;;;;;;32.03;16.40;;;4.40;99.90;;;;;;5069168;28;20268;-52
2022/12/02 02:53:45;;;;;;;29.63;16.80;;;4.30;99.90;;;;;;5060682;28;20203;-50
2022/12/02 02:56:13;;;;;;;32.10;16.50;;;4.30;99.90;;;;;;5071099;28;20210;-50
2022/12/02 02:58:42;;;;;;;26.77;15.60;;;4.40;99.90;;;;;;5057235;28;20200;-49
2022/12/02 03:01:13;;;;;;;31.40;15.67;;;4.40;99.90;;;;;;5070088;28;20203;-51
2022/12/02 03:03:42;;;;;;;28.60;14.77;;;4.40;99.90;;;;;;5058034;28;20609;-50
2022/12/02 03:06:11;;;;;;;33.10;16.50;;;4.40;99.90;;;;;;5069943;28;20211;-51
2022/12/02 03:08:41;;;;;;;27.73;16.37;;;4.40;99.90;;;;;;5069719;28;20557;-50
2022/12/02 03:11:11;;;;;;;28.50;16.37;;;4.40;99.90;;;;;;5061149;28;20620;-51
2022/12/02 03:13:40;;;;;;;23.63;14.60;;;4.40;99.90;;;;;;5065382;28;20606;-50
2022/12/02 03:16:11;;;;;;;25.30;13.77;;;4.30;99.90;;;;;;5070982;28;20653;-51
2022/12/02 03:18:39;;;;;;;24.30;14.13;;;4.30;99.90;;;;;;5071012;28;20202;-50
2022/12/02 03:21:07;;;;;;;31.63;15.23;;;4.30;99.90;;;;;;5071989;28;20614;-50
2022/12/02 03:23:35;;;;;;;25.27;15.70;;;4.40;99.90;;;;;;5069948;28;20203;-50
2022/12/02 03:26:04;;;;;;;27.83;15.07;;;4.40;99.90;;;;;;5061322;28;20198;-50
2022/12/02 03:28:33;;;;;;;27.23;14.10;;;4.30;99.90;;;;;;5066027;28;20286;-50
2022/12/02 03:31:00;;;;;;;29.23;16.03;;;4.30;99.90;;;;;;5072254;28;20286;-50
2022/12/02 03:33:29;;;;;;;30.57;15.60;;;4.30;99.90;;;;;;5074993;28;20707;-50
2022/12/02 03:35:56;;;;;;;32.33;15.87;;;4.30;99.90;;;;;;5074330;28;20221;-49
2022/12/02 03:38:26;;;;;;;29.63;17.00;;;4.30;99.90;;;;;;5073127;28;20215;-50
2022/12/02 03:40:54;;;;;;;26.07;15.37;;;4.30;99.90;;;;;;5072017;28;20642;-51
2022/12/02 03:43:21;;;;;;;27.50;15.20;;;4.20;99.90;;;;;;5067415;28;20295;-50
2022/12/02 03:45:48;;;;;;;33.17;15.47;;;4.30;99.90;;;;;;5057844;28;20278;-51
2022/12/02 03:48:20;;;;;;;29.40;16.77;;;4.20;99.90;;;;;;5074418;28;20618;-50
2022/12/02 03:50:50;;;;;;;29.53;15.20;;;4.20;99.90;;;;;;5073997;28;20218;-50
2022/12/02 03:53:17;;;;;;;35.03;16.37;;;4.20;99.90;;;;;;5074425;28;20226;-51
2022/12/02 03:55:44;;;;;;;33.50;16.73;;;4.20;99.90;;;;;;5076306;28;20732;-49
2022/12/02 03:58:11;;;;;;;31.13;16.83;;;4.20;99.90;;;;;;5068471;28;20199;-50
2022/12/02 04:00:38;;;;;;;31.93;16.17;;;4.20;99.90;;;;;;5076187;28;20201;-49
2022/12/02 04:03:06;;;;;;;34.37;16.07;;;4.20;99.90;;;;;;5073231;28;20538;-50
2022/12/02 04:05:33;;;;;;;31.07;15.77;;;4.20;99.90;;;;;;5073637;28;20276;-49
2022/12/02 04:08:02;;;;;;;30.33;15.90;;;4.20;99.90;;;;;;5075982;28;20200;-49
2022/12/02 04:10:29;;;;;;;30.50;16.70;;;4.20;99.90;;;;;;5077335;28;20237;-50
2022/12/02 04:12:56;;;;;;;31.30;16.43;;;4.20;99.90;;;;;;5070314;28;21628;-49
2022/12/02 04:15:23;;;;;;;26.67;15.43;;;4.20;99.90;;;;;;5065229;28;20272;-50
2022/12/02 04:17:50;;;;;;;28.93;16.43;;;4.20;99.90;;;;;;5061765;28;20333;-50
2022/12/02 04:20:17;;;;;;;29.87;17.10;;;4.20;99.90;;;;;;5053716;28;20271;-50
2022/12/02 04:22:44;;;;;;;32.73;17.20;;;4.30;99.90;;;;;;5053835;28;20268;-50
2022/12/02 04:25:12;;;;;;;29.47;16.00;;;4.30;99.90;;;;;;5052719;28;20269;-49
2022/12/02 04:27:39;;;;;;;28.80;16.30;;;4.30;99.90;;;;;;5080343;28;20254;-50
2022/12/02 04:30:07;;;;;;;30.07;16.53;;;4.20;99.90;;;;;;5073255;28;20198;-50
2022/12/02 04:32:35;;;;;;;34.37;17.73;;;4.20;99.90;;;;;;5073630;28;20638;-51
2022/12/02 04:35:02;;;;;;;30.33;17.57;;;4.20;99.90;;;;;;5072842;28;20644;-51
2022/12/02 04:37:28;;;;;;;34.23;18.30;;;4.20;99.90;;;;;;5073552;28;20206;-50
2022/12/02 04:39:55;;;;;;;32.57;16.70;;;4.20;99.90;;;;;;5073236;28;20197;-50
2022/12/02 04:42:24;;;;;;;29.80;15.87;;;4.20;99.90;;;;;;5069679;28;20245;-49
2022/12/02 04:44:51;;;;;;;26.87;16.43;;;4.30;99.90;;;;;;5071655;28;20708;-50
2022/12/02 04:47:18;;;;;;;29.30;15.97;;;4.30;99.90;;;;;;5067211;28;20207;-49
2022/12/02 04:49:45;;;;;;;31.93;16.47;;;4.30;99.90;;;;;;5053292;28;20207;-50
2022/12/02 04:52:12;;;;;;;28.33;16.83;;;4.20;99.90;;;;;;5067908;28;20216;-50
2022/12/02 04:54:39;;;;;;;28.43;16.93;;;4.20;99.90;;;;;;5070854;28;20708;-50
2022/12/02 04:57:07;;;;;;;30.67;16.50;;;4.20;99.90;;;;;;5059736;28;20211;-51
2022/12/02 04:59:38;;;;;;;28.73;16.97;;;4.20;99.90;;;;;;5066840;28;20206;-50
2022/12/02 05:02:05;;;;;;;28.20;16.73;;;4.20;99.90;;;;;;5064179;28;20210;-49
2022/12/02 05:04:32;;;;;;;26.60;16.13;;;4.20;99.90;;;;;;5067836;28;20235;-50
2022/12/02 05:06:59;;;;;;;30.47;17.77;;;4.30;99.90;;;;;;5071371;28;20260;-50
2022/12/02 05:09:28;;;;;;;36.63;19.43;;;4.30;99.90;;;;;;5079926;28;20223;-51
2022/12/02 05:12:01;;;;;;;29.67;16.60;;;4.20;99.90;;;;;;5073101;28;20658;-50
2022/12/02 05:14:28;;;;;;;33.60;16.73;;;4.20;99.90;;;;;;5070258;28;20249;-50
2022/12/02 05:16:57;;;;;;;31.47;16.43;;;4.20;99.90;;;;;;5068440;28;20222;-50
2022/12/02 05:19:24;;;;;;;28.27;16.73;;;4.20;99.90;;;;;;5070660;28;20207;-50
2022/12/02 05:21:51;;;;;;;30.20;16.27;;;4.20;99.90;;;;;;5065173;28;20203;-50
2022/12/02 05:24:18;;;;;;;29.87;15.90;;;4.20;99.90;;;;;;5070759;28;20218;-50
2022/12/02 05:26:46;;;;;;;30.73;17.67;;;4.20;99.90;;;;;;5072719;28;20203;-49
2022/12/02 05:29:13;;;;;;;35.33;17.27;;;4.30;99.90;;;;;;5070392;28;20209;-50
2022/12/02 05:31:40;;;;;;;34.00;17.27;;;4.20;99.90;;;;;;5063976;28;20200;-50
2022/12/02 05:34:08;;;;;;;26.77;16.83;;;4.20;99.90;;;;;;5070114;28;20602;-50
2022/12/02 05:36:35;;;;;;;31.43;17.73;;;4.20;99.90;;;;;;5070508;28;20721;-50
2022/12/02 05:39:02;;;;;;;30.90;16.83;;;4.30;99.90;;;;;;5063280;28;20249;-50
2022/12/02 05:41:29;;;;;;;36.43;18.23;;;4.30;99.90;;;;;;5068387;28;20265;-51
2022/12/02 05:43:57;;;;;;;33.87;17.07;;;4.20;99.90;;;;;;5070267;28;20225;-50
2022/12/02 05:46:24;;;;;;;27.47;15.83;;;4.20;99.90;;;;;;5057305;28;20259;-49
2022/12/02 05:48:51;;;;;;;32.13;17.57;;;4.20;99.90;;;;;;5052149;28;20296;-51
2022/12/02 05:51:21;;;;;;;35.17;18.50;;;4.20;99.90;;;;;;5058519;28;20534;-49
2022/12/02 05:53:50;;;;;;;29.77;16.40;;;4.20;99.90;;;;;;5061604;28;20226;-49
2022/12/02 05:56:25;;;;;;;28.87;16.07;;;4.20;99.90;;;;;;5071301;28;20203;-49
2022/12/02 05:58:52;;;;;;;36.00;19.23;;;4.20;99.90;;;;;;5071301;28;20206;-50
2022/12/02 06:01:22;;;;;;;28.47;17.37;;;4.30;99.90;;;;;;5073911;28;20198;-50
2022/12/02 06:03:50;;;;;;;36.63;18.50;;;4.30;99.90;;;;;;5062124;28;20267;-49
2022/12/02 06:06:22;;;;;;;28.07;16.37;;;4.30;99.90;;;;;;5071620;28;20601;-51
2022/12/02 06:08:49;;;;;;;30.90;17.70;;;4.20;99.90;;;;;;5071195;28;20219;-51
2022/12/02 06:11:27;;;;;;;32.47;16.87;;;4.30;99.90;;;;;;5072239;28;20213;-50
2022/12/02 06:13:55;;;;;;;37.00;19.10;;;4.30;99.90;;;;;;5073644;28;20218;-50
2022/12/02 06:16:25;;;;;;;33.80;18.40;;;4.30;99.90;;;;;;5078019;28;20233;-50
2022/12/02 06:18:53;;;;;;;30.83;18.00;;;4.30;99.90;;;;;;5081419;28;20228;-50
2022/12/02 06:21:23;;;;;;;35.00;19.20;;;4.30;99.90;;;;;;5085959;28;20682;-51
2022/12/02 06:23:52;;;;;;;35.00;18.97;;;4.30;99.90;;;;;;5085777;28;20226;-57
2022/12/02 06:26:20;;;;;;;35.70;18.53;;;4.30;99.90;;;;;;5083073;28;20202;-51
2022/12/02 06:28:49;;;;;;;38.70;18.77;;;4.30;99.90;;;;;;5071914;28;20202;-50
2022/12/02 06:31:20;;;;;;;33.20;18.27;;;4.30;99.90;;;;;;5071116;28;20267;-50
2022/12/02 06:33:50;;;;;;;33.70;17.23;;;4.30;99.90;;;;;;5070368;28;20268;-50
2022/12/02 06:36:21;;;;;;;32.97;19.50;;;4.30;99.90;;;;;;5070428;28;20204;-49
2022/12/02 06:38:52;;;;;;;35.47;19.70;;;4.30;99.90;;;;;;5071342;28;20202;-50
2022/12/02 06:41:22;;;;;;;30.70;17.00;;;4.30;99.90;;;;;;5072618;28;20265;-49
2022/12/02 06:46:32;;;;;;;26.40;16.63;;;4.30;99.90;;;;;;5070196;28;20272;-50
2022/12/02 06:48:59;;;;;;;31.70;17.20;;;4.30;99.90;;;;;;5070215;28;20202;-50
2022/12/02 06:51:26;;;;;;;36.10;19.97;;;4.30;99.90;;;;;;5071182;28;20234;-50
2022/12/02 06:53:55;;;;;;;31.83;17.67;;;4.30;99.90;;;;;;5064373;28;20234;-50
2022/12/02 06:56:24;;;;;;;30.00;17.27;;;4.30;99.90;;;;;;5075451;28;20251;-49
2022/12/02 06:58:57;;;;;;;32.00;17.37;;;4.30;99.90;;;;;;5075841;28;20197;-50
2022/12/02 07:01:31;;;;;;;32.13;18.07;;;4.30;99.90;;;;;;5076221;28;20566;-50
2022/12/02 07:04:05;;;;;;;36.80;18.57;;;4.30;99.90;;;;;;5076365;28;20747;-50
2022/12/02 07:06:35;;;;;;;34.83;18.37;;;4.30;99.90;;;;;;5070566;28;20230;-49
2022/12/02 07:09:12;;;;;;;33.27;16.60;;;4.30;99.90;;;;;;5064931;28;20199;-50
2022/12/02 07:11:52;;;;;;;34.50;18.80;;;4.30;99.90;;;;;;5074999;28;20415;-49
2022/12/02 07:14:30;;;;;;;30.57;16.73;;;4.30;99.90;;;;;;5074189;28;20263;-50
2022/12/02 07:17:02;;;;;;;33.70;18.63;;;4.30;99.90;;;;;;5075046;28;20203;-50
2022/12/02 07:19:37;;;;;;;35.07;17.27;;;4.30;99.90;;;;;;5074132;28;20784;-49
2022/12/02 07:22:14;;;;;;;36.43;18.93;;;4.30;99.90;;;;;;5076136;28;20229;-51
2022/12/02 07:24:52;;;;;;;34.87;19.27;;;4.30;99.90;;;;;;5074041;28;20277;-50
2022/12/02 07:27:24;;;;;;;37.10;17.73;;;4.30;99.90;;;;;;5074746;28;20217;-49
2022/12/02 07:29:53;;;;;;;35.37;18.97;;;4.30;99.90;;;;;;5074934;28;20264;-49
2022/12/02 07:32:20;;;;;;;35.63;20.10;;;4.30;99.90;;;;;;5074681;28;20677;-50
2022/12/02 07:34:47;;;;;;;28.73;16.87;;;4.30;99.90;;;;;;5067763;28;20222;-50
2022/12/02 07:37:14;;;;;;;38.93;18.43;;;4.30;99.90;;;;;;5071681;28;20202;-50
2022/12/02 07:39:42;;;;;;;34.77;18.87;;;4.40;99.90;;;;;;5081760;28;20228;-50
2022/12/02 07:42:12;;;;;;;31.93;17.90;;;4.40;99.90;;;;;;5079785;28;20475;-51
2022/12/02 07:44:39;;;;;;;37.77;18.10;;;4.40;99.90;;;;;;5074311;28;20308;-50
2022/12/02 07:47:07;;;;;;;28.47;17.13;;;4.40;99.90;;;;;;5064231;28;20210;-50
2022/12/02 07:49:37;;;;;;;37.13;19.23;;;4.40;99.90;;;;;;5070635;28;20297;-50
2022/12/02 07:52:05;;;;;;;37.53;18.30;;;4.40;99.90;;;;;;5077598;28;20199;-50
2022/12/02 07:54:32;;;;;;;30.70;17.57;;;4.40;99.90;;;;;;5057380;28;20282;-50
2022/12/02 07:56:59;;;;;;;30.60;16.20;;;4.40;99.90;;;;;;5066884;28;20247;-50
2022/12/02 07:59:27;;;;;;;32.43;17.97;;;4.40;99.90;;;;;;5067658;28;20204;-49
2022/12/02 08:01:55;;;;;;;31.30;17.77;;;4.40;99.90;;;;;;5067597;28;20206;-50
2022/12/02 08:04:22;;;;;;;31.27;17.30;;;4.40;99.90;;;;;;5072810;28;20417;-50
2022/12/02 08:06:49;;;;;;;31.03;17.43;;;4.40;99.90;;;;;;5071897;28;20199;-50
2022/12/02 08:09:16;;;;;;;34.63;18.30;;;4.40;99.90;;;;;;5073062;28;20563;-50
2022/12/02 08:11:43;;;;;;;35.00;19.07;;;4.40;99.90;;;;;;5072199;28;20211;-51
2022/12/02 08:14:10;;;;;;;28.47;17.70;;;4.40;99.90;;;;;;5069492;28;21615;-50
2022/12/02 08:16:38;;;;;;;36.73;18.83;;;4.40;99.90;;;;;;5071851;28;20628;-51
2022/12/02 08:19:06;;;;;;;36.57;19.43;;;4.40;99.90;;;;;;5071931;28;20236;-50
2022/12/02 08:21:33;;;;;;;34.93;18.57;;;4.40;99.90;;;;;;5072179;28;20780;-49
2022/12/02 08:24:00;;;;;;;37.03;20.63;;;4.40;99.90;;;;;;5071273;28;20219;-51
2022/12/02 08:26:27;;;;;;;36.80;20.30;;;4.40;99.90;;;;;;5073660;28;20215;-50
2022/12/02 08:28:54;;;;;;;38.07;21.13;;;4.50;99.90;;;;;;5070060;28;20241;-49
2022/12/02 08:31:22;;;;;;;36.30;19.83;;;4.50;99.90;;;;;;5071335;28;20196;-50
2022/12/02 08:33:51;;;;;;;38.87;21.60;;;4.50;99.90;;;;;;5077358;28;20638;-51
2022/12/02 08:36:19;;;;;;;39.27;19.20;;;4.50;99.90;;;;;;5078501;28;20211;-50
2022/12/02 08:38:46;;;;;;;38.60;19.90;;;4.40;99.90;;;;;;5073919;28;20664;-50
2022/12/02 08:41:14;;;;;;;36.73;20.53;;;4.50;99.90;;;;;;5070380;28;20210;-49
2022/12/02 08:43:41;;;;;;;33.80;19.67;;;4.50;99.90;;;;;;5064878;28;20194;-49
2022/12/02 08:46:09;;;;;;;42.97;19.10;;;4.50;99.90;;;;;;5072100;28;20725;-50
2022/12/02 08:48:36;;;;;;;36.73;19.63;;;4.50;99.90;;;;;;5073332;28;20624;-50
2022/12/02 08:51:05;;;;;;;30.27;17.00;;;4.50;99.90;;;;;;5073267;28;20201;-50
2022/12/02 08:53:32;;;;;;;33.17;17.70;;;4.50;99.90;;;;;;5072287;28;20227;-50
2022/12/02 08:55:59;;;;;;;33.63;18.13;;;4.50;99.90;;;;;;5073289;28;20920;-50
2022/12/02 08:58:27;;;;;;;37.63;19.80;;;4.50;99.90;;;;;;5073093;28;20559;-50
2022/12/02 09:00:54;;;;;;;36.83;19.93;;;4.50;99.90;;;;;;5073024;28;20203;-51
2022/12/02 09:03:21;;;;;;;34.77;19.87;;;4.60;99.90;;;;;;5071795;28;20215;-50
2022/12/02 09:05:48;;;;;;;35.27;17.77;;;4.50;99.90;;;;;;5072710;28;20228;-50
2022/12/02 09:08:17;;;;;;;38.90;20.67;;;4.50;99.90;;;;;;5072820;28;20247;-50
2022/12/02 09:10:44;;;;;;;38.67;19.57;;;4.60;99.90;;;;;;5072919;28;20293;-49
2022/12/02 09:13:11;;;;;;;37.60;19.33;;;4.60;99.90;;;;;;5072424;28;20202;-50
2022/12/02 09:15:38;;;;;;;34.87;18.73;;;4.60;99.90;;;;;;5071933;28;20253;-50
2022/12/02 09:18:05;;;;;;;41.00;21.47;;;4.60;99.90;;;;;;5072286;28;20203;-49
2022/12/02 09:20:32;;;;;;;36.77;19.80;;;4.60;99.90;;;;;;5072796;28;20204;-49
2022/12/02 09:23:00;;;;;;;35.43;19.27;;;4.60;99.90;;;;;;5066887;28;20691;-50
2022/12/02 09:25:28;;;;;;;38.60;19.63;;;4.60;99.90;;;;;;5077079;28;20226;-51
2022/12/02 09:27:55;;;;;;;36.90;19.47;;;4.60;99.90;;;;;;5071523;28;20196;-51
2022/12/02 09:30:22;;;;;;;31.47;17.27;;;4.60;99.90;;;;;;5070805;28;20210;-49
2022/12/02 09:32:49;;;;;;;29.37;16.20;;;4.60;99.90;;;;;;5070285;28;20272;-49
2022/12/02 09:35:16;;;;;;;35.70;18.17;;;4.60;99.90;;;;;;5058550;28;20224;-50
2022/12/02 09:37:43;;;;;;;35.83;19.33;;;4.70;99.90;;;;;;5051957;28;20214;-50
2022/12/02 09:40:11;;;;;;;38.13;20.00;;;4.70;99.90;;;;;;5068821;28;20208;-49
2022/12/02 09:42:39;;;;;;;36.20;21.27;;;4.70;99.90;;;;;;5071486;28;20207;-50
2022/12/02 09:45:07;;;;;;;41.87;21.10;;;4.80;99.90;;;;;;5070540;28;20223;-49
2022/12/02 09:47:35;;;;;;;36.13;18.60;;;4.80;99.90;;;;;;5059146;28;20197;-50
2022/12/02 09:50:02;;;;;;;33.53;17.93;;;4.80;99.90;;;;;;5065452;28;20197;-50
2022/12/02 09:52:29;;;;;;;34.73;18.90;;;4.80;99.90;;;;;;5071729;28;20202;-50
2022/12/02 09:54:57;;;;;;;41.27;18.63;;;4.90;99.90;;;;;;5069605;28;20243;-51
2022/12/02 09:57:28;;;;;;;32.73;18.57;;;4.90;99.90;;;;;;5072246;28;20200;-50
2022/12/02 09:59:57;;;;;;;39.30;17.87;;;5.00;99.90;;;;;;5065945;28;20226;-51
2022/12/02 10:02:29;;;;;;;36.33;18.87;;;5.00;99.90;;;;;;5070615;28;20256;-49
2022/12/02 10:05:00;;;;;;;33.47;18.27;;;5.10;99.90;;;;;;5069981;28;20324;-50
2022/12/02 10:07:28;;;;;;;35.47;19.40;;;5.10;99.90;;;;;;5080851;28;20749;-50
2022/12/02 10:09:55;;;;;;;34.77;19.17;;;5.10;99.90;;;;;;5063192;28;20207;-50
2022/12/02 10:12:22;;;;;;;40.93;21.93;;;5.10;99.90;;;;;;5071186;28;20730;-51
2022/12/02 10:14:51;;;;;;;35.20;20.57;;;5.10;99.90;;;;;;5071032;28;20223;-49
2022/12/02 10:17:21;;;;;;;38.87;19.70;;;5.10;99.90;;;;;;5070981;28;20273;-51
2022/12/02 10:19:49;;;;;;;29.53;18.47;;;5.20;99.90;;;;;;5070120;28;20212;-49
2022/12/02 10:22:18;;;;;;;30.50;17.40;;;5.20;99.90;;;;;;5071612;28;20210;-51
2022/12/02 10:24:47;;;;;;;32.77;19.23;;;5.30;99.90;;;;;;5060898;28;20280;-50
2022/12/02 10:27:24;;;;;;;30.60;18.10;;;5.30;99.90;;;;;;5070956;28;20207;-50
2022/12/02 10:29:52;;;;;;;32.47;16.93;;;5.30;99.90;;;;;;5069237;28;20239;-50
2022/12/02 10:32:22;;;;;;;30.47;18.83;;;5.30;99.90;;;;;;5065317;28;20259;-50
2022/12/02 10:35:02;;;;;;;32.37;18.50;;;5.40;99.90;;;;;;5060257;28;20235;-50
2022/12/02 10:37:33;;;;;;;32.33;18.60;;;5.50;99.90;;;;;;5070000;28;20262;-51
2022/12/02 10:40:14;;;;;;;35.07;17.70;;;5.60;99.90;;;;;;5069965;28;20236;-50
2022/12/02 10:42:42;;;;;;;26.43;15.77;;;5.70;99.90;;;;;;5070579;28;20207;-51
2022/12/02 10:45:16;;;;;;;34.80;19.37;;;5.80;99.90;;;;;;5069849;28;20630;-50
2022/12/02 10:47:44;;;;;;;32.20;17.87;;;5.80;99.90;;;;;;5069882;28;20250;-50
2022/12/02 10:50:18;;;;;;;28.13;15.57;;;5.80;99.90;;;;;;5074160;28;20788;-50
2022/12/02 10:52:47;;;;;;;26.47;15.53;;;5.80;99.90;;;;;;5071145;28;20621;-50
2022/12/02 10:55:16;;;;;;;25.93;16.17;;;5.80;99.90;;;;;;5069788;28;20220;-51
2022/12/02 10:57:44;;;;;;;27.67;16.87;;;5.80;99.90;;;;;;5068165;28;20204;-51
2022/12/02 11:00:15;;;;;;;30.03;16.77;;;5.70;99.90;;;;;;5070895;28;20212;-51
2022/12/02 11:02:47;;;;;;;28.40;16.10;;;5.70;99.90;;;;;;5069432;28;20201;-50
2022/12/02 11:05:17;;;;;;;30.23;17.65;;;5.70;99.90;;;;;;5068024;28;20436;-50
2022/12/02 11:07:53;;;;;;;30.67;17.05;;;5.70;99.90;;;;;;5061270;28;20450;-50
2022/12/02 11:10:21;;;;;;;29.80;17.10;;;5.70;99.90;;;;;;5064450;28;20211;-52
2022/12/02 11:13:05;;;;;;;25.43;15.80;;;5.70;99.90;;;;;;5071195;28;20269;-49
2022/12/02 11:15:44;;;;;;;24.13;16.00;;;5.70;99.90;;;;;;5073967;28;20221;-51
2022/12/02 11:18:55;;;;;;;24.70;14.60;;;5.60;99.90;;;;;;5055188;28;20208;-50
2022/12/02 11:21:40;;;;;;;27.50;15.90;;;5.60;99.90;;;;;;5064417;28;20260;-50
2022/12/02 11:24:37;;;;;;;29.70;15.97;;;5.60;99.90;;;;;;5061861;28;20233;-50
2022/12/02 11:27:09;;;;;;;26.07;14.27;;;5.60;99.90;;;;;;5062631;28;20550;-49
2022/12/02 11:29:37;;;;;;;26.27;14.40;;;5.60;99.90;;;;;;5070501;28;20207;-50
2022/12/02 11:32:17;;;;;;;28.47;16.70;;;5.50;99.90;;;;;;5071097;28;20194;-51
2022/12/02 11:34:48;;;;;;;24.13;14.20;;;5.40;99.90;;;;;;5068950;28;20270;-49
2022/12/02 11:37:40;;;;;;;26.53;14.93;;;5.40;99.90;;;;;;5071735;28;20211;-49
2022/12/02 11:40:40;;;;;;;24.40;14.53;;;5.40;99.90;;;;;;5070387;28;20574;-49
2022/12/02 11:43:44;;;;;;;27.03;15.43;;;5.50;99.90;;;;;;5076912;28;20203;-49
2022/12/02 11:46:13;;;;;;;28.37;13.57;;;5.40;99.90;;;;;;5073360;28;20249;-51
2022/12/02 11:48:45;;;;;;;21.50;13.17;;;5.50;99.90;;;;;;5071126;28;20639;-50
2022/12/02 11:51:35;;;;;;;23.80;14.13;;;5.50;99.90;;;;;;5070642;28;20319;-51
2022/12/02 11:54:02;;;;;;;29.70;15.67;;;5.50;99.90;;;;;;5064512;28;20651;-50
2022/12/02 11:56:36;;;;;;;31.10;17.23;;;5.50;99.90;;;;;;5072826;28;20202;-50
2022/12/02 11:59:03;;;;;;;31.43;19.13;;;5.50;99.90;;;;;;5065104;28;20224;-51
2022/12/02 12:01:30;;;;;;;31.07;18.83;;;5.40;99.90;;;;;;5074629;28;20212;-51
2022/12/02 12:03:57;;;;;;;33.23;19.03;;;5.50;99.90;;;;;;5073597;28;20253;-50
2022/12/02 12:06:28;;;;;;;33.03;17.83;;;5.50;99.90;;;;;;5073048;28;20697;-49
2022/12/02 12:08:56;;;;;;;36.17;18.97;;;5.50;99.90;;;;;;5069861;28;20230;-49
2022/12/02 12:11:25;;;;;;;36.33;19.30;;;5.50;99.90;;;;;;5069143;28;20200;-51
2022/12/02 12:14:01;;;;;;;34.57;18.83;;;5.50;99.90;;;;;;5073158;28;20235;-49
2022/12/02 12:16:31;;;;;;;34.13;18.63;;;5.50;99.90;;;;;;5067879;28;20207;-49
2022/12/02 12:18:58;;;;;;;33.70;18.70;;;5.40;99.90;;;;;;5064395;28;20199;-50
2022/12/02 12:21:44;;;;;;;33.93;18.13;;;5.40;99.90;;;;;;5063836;28;20242;-50
2022/12/02 12:24:34;;;;;;;33.77;18.33;;;5.40;99.90;;;;;;5063441;28;20223;-49
2022/12/02 12:27:31;;;;;;;34.47;18.20;;;5.40;99.90;;;;;;5063957;28;20206;-49
2022/12/02 12:29:58;;;;;;;31.67;16.30;;;5.40;99.90;;;;;;5064102;28;20207;-50
2022/12/02 12:32:25;;;;;;;31.23;17.30;;;5.40;99.90;;;;;;5066858;28;20208;-50
2022/12/02 12:34:52;;;;;;;28.37;17.20;;;5.40;99.90;;;;;;5070709;28;20223;-50
2022/12/02 12:37:20;;;;;;;27.10;15.90;;;5.50;99.90;;;;;;5065693;28;20232;-49
2022/12/02 12:39:47;;;;;;;29.23;17.23;;;5.50;99.90;;;;;;5069260;28;20208;-50
2022/12/02 12:42:15;;;;;;;27.73;16.30;;;5.60;99.90;;;;;;5062073;28;20207;-49
2022/12/02 12:44:41;;;;;;;25.13;14.27;;;5.60;99.90;;;;;;5063772;28;20273;-50
2022/12/02 12:47:08;;;;;;;28.70;15.03;;;5.60;99.90;;;;;;5064832;28;20212;-50
2022/12/02 12:49:37;;;;;;;19.20;13.73;;;5.70;99.90;;;;;;5069636;28;20261;-49
2022/12/02 12:52:04;;;;;;;24.37;13.33;;;5.70;99.90;;;;;;5062619;28;20244;-50